sensor_id;sensor_type;location;lat;lon;timestamp;pressure;altitude;pressure_sealevel;temperature;humidity
57050;BME280;42935;50.966;16.992;2023-03-03T00:02:43;102023.86;;;-1.41;100.00
57050;BME280;42935;50.966;16.992;2023-03-03T00:06:04;102034.19;;;-1.18;100.00
57050;BME280;42935;50.966;16.992;2023-03-03T00:09:32;102031.82;;;-1.06;100.00
57050;BME280;42935;50.966;16.992;2023-03-03T00:12:56;102026.96;;;-1.07;100.00
57050;BME280;42935;50.966;16.992;2023-03-03T00:16:34;102031.22;;;-1.21;100.00
57050;BME280;42935;50.966;16.992;2023-03-03T00:23:38;102026.48;;;-1.17;100.00
57050;BME280;42935;50.966;16.992;2023-03-03T00:30:34;102038.76;;;-0.96;100.00
57050;BME280;42935;50.966;16.992;2023-03-03T00:34:26;102037.70;;;-1.04;100.00
57050;BME280;42935;50.966;16.992;2023-03-03T00:37:33;102033.76;;;-1.00;100.00
57050;BME280;42935;50.966;16.992;2023-03-03T00:40:57;102025.95;;;-1.03;100.00
57050;BME280;42935;50.966;16.992;2023-03-03T00:47:56;102006.43;;;-1.05;100.00
57050;BME280;42935;50.966;16.992;2023-03-03T00:51:25;102009.65;;;-0.98;100.00
57050;BME280;42935;50.966;16.992;2023-03-03T00:54:54;102013.99;;;-0.85;100.00
57050;BME280;42935;50.966;16.992;2023-03-03T00:58:17;102004.32;;;-0.86;100.00
57050;BME280;42935;50.966;16.992;2023-03-03T01:01:39;102012.27;;;-0.69;100.00
57050;BME280;42935;50.966;16.992;2023-03-03T01:05:03;102015.14;;;-0.82;100.00
57050;BME280;42935;50.966;16.992;2023-03-03T01:08:31;101996.83;;;-0.97;100.00
57050;BME280;42935;50.966;16.992;2023-03-03T01:11:52;102020.98;;;-0.85;100.00
57050;BME280;42935;50.966;16.992;2023-03-03T01:15:21;102013.59;;;-0.89;100.00
57050;BME280;42935;50.966;16.992;2023-03-03T01:18:45;102016.66;;;-0.71;100.00
57050;BME280;42935;50.966;16.992;2023-03-03T01:22:12;102008.07;;;-0.93;100.00
57050;BME280;42935;50.966;16.992;2023-03-03T01:25:38;102009.33;;;-0.93;100.00
57050;BME280;42935;50.966;16.992;2023-03-03T01:29:05;102010.99;;;-0.88;100.00
57050;BME280;42935;50.966;16.992;2023-03-03T01:32:30;101994.08;;;-1.04;100.00
57050;BME280;42935;50.966;16.992;2023-03-03T01:35:53;102001.86;;;-1.04;100.00
57050;BME280;42935;50.966;16.992;2023-03-03T01:39:16;101997.05;;;-1.03;100.00
57050;BME280;42935;50.966;16.992;2023-03-03T01:42:42;101994.95;;;-1.14;100.00
57050;BME280;42935;50.966;16.992;2023-03-03T01:49:50;101984.48;;;-1.17;100.00
57050;BME280;42935;50.966;16.992;2023-03-03T01:53:25;101963.93;;;-1.06;100.00
57050;BME280;42935;50.966;16.992;2023-03-03T01:56:56;101984.40;;;-1.01;100.00
57050;BME280;42935;50.966;16.992;2023-03-03T02:00:21;101959.37;;;-1.23;100.00
57050;BME280;42935;50.966;16.992;2023-03-03T02:03:46;101961.70;;;-1.04;100.00
57050;BME280;42935;50.966;16.992;2023-03-03T02:07:11;101964.25;;;-0.84;100.00
57050;BME280;42935;50.966;16.992;2023-03-03T02:10:37;101973.36;;;-1.12;100.00
57050;BME280;42935;50.966;16.992;2023-03-03T02:14:01;101966.64;;;-1.18;100.00
57050;BME280;42935;50.966;16.992;2023-03-03T02:17:28;101964.40;;;-1.48;100.00
57050;BME280;42935;50.966;16.992;2023-03-03T02:28:02;101959.08;;;-1.36;100.00
57050;BME280;42935;50.966;16.992;2023-03-03T02:31:28;101958.18;;;-1.31;100.00
57050;BME280;42935;50.966;16.992;2023-03-03T02:34:49;101941.39;;;-1.62;100.00
57050;BME280;42935;50.966;16.992;2023-03-03T02:41:54;101948.39;;;-1.41;100.00
57050;BME280;42935;50.966;16.992;2023-03-03T02:45:21;101952.75;;;-1.47;100.00
57050;BME280;42935;50.966;16.992;2023-03-03T02:48:38;101960.87;;;-1.49;100.00
57050;BME280;42935;50.966;16.992;2023-03-03T02:52:06;101962.52;;;-1.37;100.00
57050;BME280;42935;50.966;16.992;2023-03-03T02:55:39;101963.47;;;-1.42;100.00
57050;BME280;42935;50.966;16.992;2023-03-03T02:59:06;101964.81;;;-1.67;100.00
57050;BME280;42935;50.966;16.992;2023-03-03T03:02:22;101957.34;;;-1.73;100.00
57050;BME280;42935;50.966;16.992;2023-03-03T03:05:52;101971.30;;;-1.76;100.00
57050;BME280;42935;50.966;16.992;2023-03-03T03:09:21;101959.61;;;-1.86;100.00
57050;BME280;42935;50.966;16.992;2023-03-03T03:12:45;101974.04;;;-1.78;100.00
57050;BME280;42935;50.966;16.992;2023-03-03T03:16:12;101980.42;;;-1.88;100.00
57050;BME280;42935;50.966;16.992;2023-03-03T03:19:41;101995.94;;;-1.81;100.00
57050;BME280;42935;50.966;16.992;2023-03-03T03:23:00;101994.73;;;-1.76;100.00
57050;BME280;42935;50.966;16.992;2023-03-03T03:26:26;101993.50;;;-1.60;100.00
57050;BME280;42935;50.966;16.992;2023-03-03T03:29:50;101984.22;;;-1.67;100.00
57050;BME280;42935;50.966;16.992;2023-03-03T03:33:13;101996.16;;;-1.75;100.00
57050;BME280;42935;50.966;16.992;2023-03-03T03:36:40;101982.79;;;-1.64;100.00
57050;BME280;42935;50.966;16.992;2023-03-03T03:40:09;101976.51;;;-1.69;100.00
57050;BME280;42935;50.966;16.992;2023-03-03T03:43:34;101973.84;;;-1.89;100.00
57050;BME280;42935;50.966;16.992;2023-03-03T03:46:58;101972.97;;;-1.83;100.00
57050;BME280;42935;50.966;16.992;2023-03-03T03:50:21;101972.64;;;-1.82;100.00
57050;BME280;42935;50.966;16.992;2023-03-03T03:53:44;101978.37;;;-1.97;100.00
57050;BME280;42935;50.966;16.992;2023-03-03T03:57:07;101974.34;;;-2.00;100.00
57050;BME280;42935;50.966;16.992;2023-03-03T04:00:31;101980.58;;;-1.98;100.00
57050;BME280;42935;50.966;16.992;2023-03-03T04:03:54;101983.27;;;-1.95;100.00
57050;BME280;42935;50.966;16.992;2023-03-03T04:07:18;101990.19;;;-2.02;100.00
57050;BME280;42935;50.966;16.992;2023-03-03T04:10:43;101988.06;;;-1.92;100.00
57050;BME280;42935;50.966;16.992;2023-03-03T04:14:10;101990.65;;;-1.87;100.00
57050;BME280;42935;50.966;16.992;2023-03-03T04:17:34;101978.00;;;-1.85;100.00
57050;BME280;42935;50.966;16.992;2023-03-03T04:20:56;101961.95;;;-1.93;100.00
57050;BME280;42935;50.966;16.992;2023-03-03T04:24:54;101999.57;;;-1.72;100.00
57050;BME280;42935;50.966;16.992;2023-03-03T04:28:15;102003.98;;;-1.77;100.00
57050;BME280;42935;50.966;16.992;2023-03-03T04:31:39;102008.64;;;-1.69;100.00
57050;BME280;42935;50.966;16.992;2023-03-03T04:34:59;102009.51;;;-1.73;100.00
57050;BME280;42935;50.966;16.992;2023-03-03T04:38:27;102017.61;;;-1.97;100.00
57050;BME280;42935;50.966;16.992;2023-03-03T04:41:50;102023.70;;;-1.86;100.00
57050;BME280;42935;50.966;16.992;2023-03-03T04:45:18;102023.17;;;-1.94;100.00
57050;BME280;42935;50.966;16.992;2023-03-03T04:48:45;102009.41;;;-1.94;100.00
57050;BME280;42935;50.966;16.992;2023-03-03T04:52:14;102006.01;;;-1.98;100.00
57050;BME280;42935;50.966;16.992;2023-03-03T04:55:37;102015.20;;;-1.94;100.00
57050;BME280;42935;50.966;16.992;2023-03-03T04:59:01;102013.94;;;-1.89;100.00
57050;BME280;42935;50.966;16.992;2023-03-03T05:02:27;102022.59;;;-1.92;100.00
57050;BME280;42935;50.966;16.992;2023-03-03T05:05:51;102019.25;;;-1.82;100.00
57050;BME280;42935;50.966;16.992;2023-03-03T05:09:11;102022.52;;;-1.88;100.00
57050;BME280;42935;50.966;16.992;2023-03-03T05:12:39;102012.38;;;-1.79;100.00
57050;BME280;42935;50.966;16.992;2023-03-03T05:15:59;102009.46;;;-1.77;100.00
57050;BME280;42935;50.966;16.992;2023-03-03T05:19:23;102018.05;;;-1.80;100.00
57050;BME280;42935;50.966;16.992;2023-03-03T05:22:44;102023.52;;;-1.86;100.00
57050;BME280;42935;50.966;16.992;2023-03-03T05:26:04;102012.52;;;-1.94;100.00
57050;BME280;42935;50.966;16.992;2023-03-03T05:29:32;102016.65;;;-1.97;100.00
57050;BME280;42935;50.966;16.992;2023-03-03T05:33:25;102016.54;;;-1.93;100.00
57050;BME280;42935;50.966;16.992;2023-03-03T05:36:53;102019.16;;;-1.90;100.00
57050;BME280;42935;50.966;16.992;2023-03-03T05:40:13;102017.41;;;-1.93;100.00
57050;BME280;42935;50.966;16.992;2023-03-03T05:43:37;102026.81;;;-1.96;100.00
57050;BME280;42935;50.966;16.992;2023-03-03T05:47:01;102021.80;;;-1.93;100.00
57050;BME280;42935;50.966;16.992;2023-03-03T05:50:21;102023.88;;;-1.94;100.00
57050;BME280;42935;50.966;16.992;2023-03-03T05:53:50;102005.80;;;-2.15;100.00
57050;BME280;42935;50.966;16.992;2023-03-03T05:57:07;102012.76;;;-2.12;100.00
57050;BME280;42935;50.966;16.992;2023-03-03T06:00:22;102015.55;;;-2.11;100.00
57050;BME280;42935;50.966;16.992;2023-03-03T06:03:44;102021.27;;;-2.12;100.00
57050;BME280;42935;50.966;16.992;2023-03-03T06:07:11;102006.81;;;-2.15;100.00
57050;BME280;42935;50.966;16.992;2023-03-03T06:10:34;102010.57;;;-2.13;100.00
57050;BME280;42935;50.966;16.992;2023-03-03T06:13:55;102029.37;;;-2.19;100.00
57050;BME280;42935;50.966;16.992;2023-03-03T06:17:22;102022.57;;;-2.17;100.00
57050;BME280;42935;50.966;16.992;2023-03-03T06:20:42;102040.71;;;-2.22;100.00
57050;BME280;42935;50.966;16.992;2023-03-03T06:24:05;102043.76;;;-2.18;100.00
57050;BME280;42935;50.966;16.992;2023-03-03T06:27:36;102044.41;;;-2.14;100.00
57050;BME280;42935;50.966;16.992;2023-03-03T06:30:56;102034.39;;;-2.10;100.00
57050;BME280;42935;50.966;16.992;2023-03-03T06:34:20;102044.05;;;-2.24;100.00
57050;BME280;42935;50.966;16.992;2023-03-03T06:37:40;102034.38;;;-2.29;100.00
57050;BME280;42935;50.966;16.992;2023-03-03T06:41:00;102044.86;;;-2.27;100.00
57050;BME280;42935;50.966;16.992;2023-03-03T06:44:24;102065.17;;;-2.20;100.00
57050;BME280;42935;50.966;16.992;2023-03-03T06:47:47;102050.36;;;-2.21;100.00
57050;BME280;42935;50.966;16.992;2023-03-03T06:54:57;102050.55;;;-2.13;100.00
57050;BME280;42935;50.966;16.992;2023-03-03T06:58:20;102048.92;;;-2.10;100.00
57050;BME280;42935;50.966;16.992;2023-03-03T07:01:50;102041.86;;;-2.07;100.00
57050;BME280;42935;50.966;16.992;2023-03-03T07:05:16;102042.81;;;-1.98;100.00
57050;BME280;42935;50.966;16.992;2023-03-03T07:08:44;102048.25;;;-1.99;100.00
57050;BME280;42935;50.966;16.992;2023-03-03T07:12:18;102058.01;;;-2.17;100.00
57050;BME280;42935;50.966;16.992;2023-03-03T07:15:48;102065.88;;;-2.16;100.00
57050;BME280;42935;50.966;16.992;2023-03-03T07:19:22;102057.57;;;-2.24;100.00
57050;BME280;42935;50.966;16.992;2023-03-03T07:22:44;102079.43;;;-2.25;100.00
57050;BME280;42935;50.966;16.992;2023-03-03T07:26:11;102078.72;;;-2.33;100.00
57050;BME280;42935;50.966;16.992;2023-03-03T07:29:29;102093.26;;;-2.26;100.00
57050;BME280;42935;50.966;16.992;2023-03-03T07:32:55;102095.02;;;-2.20;100.00
57050;BME280;42935;50.966;16.992;2023-03-03T07:36:51;102106.80;;;-2.22;100.00
57050;BME280;42935;50.966;16.992;2023-03-03T07:43:41;102103.41;;;-2.24;100.00
57050;BME280;42935;50.966;16.992;2023-03-03T07:50:41;102086.45;;;-2.09;100.00
57050;BME280;42935;50.966;16.992;2023-03-03T07:57:37;102071.37;;;-2.00;100.00
57050;BME280;42935;50.966;16.992;2023-03-03T08:04:38;102080.80;;;-2.05;100.00
57050;BME280;42935;50.966;16.992;2023-03-03T08:08:13;102076.09;;;-2.07;100.00
57050;BME280;42935;50.966;16.992;2023-03-03T08:11:52;102092.39;;;-1.93;100.00
57050;BME280;42935;50.966;16.992;2023-03-03T08:15:24;102093.27;;;-2.06;100.00
57050;BME280;42935;50.966;16.992;2023-03-03T08:18:47;102096.90;;;-2.07;100.00
57050;BME280;42935;50.966;16.992;2023-03-03T08:22:14;102017.00;;;-2.37;100.00
57050;BME280;42935;50.966;16.992;2023-03-03T08:25:32;102087.84;;;-2.05;100.00
57050;BME280;42935;50.966;16.992;2023-03-03T08:28:52;102080.17;;;-2.13;100.00
57050;BME280;42935;50.966;16.992;2023-03-03T08:32:13;102091.48;;;-1.94;100.00
57050;BME280;42935;50.966;16.992;2023-03-03T08:35:32;102083.73;;;-1.86;100.00
57050;BME280;42935;50.966;16.992;2023-03-03T08:38:52;102091.33;;;-1.90;100.00
57050;BME280;42935;50.966;16.992;2023-03-03T08:42:14;102082.88;;;-1.89;100.00
57050;BME280;42935;50.966;16.992;2023-03-03T08:45:37;102098.13;;;-1.87;100.00
57050;BME280;42935;50.966;16.992;2023-03-03T08:49:01;102096.25;;;-1.87;100.00
57050;BME280;42935;50.966;16.992;2023-03-03T08:52:29;102097.30;;;-1.82;100.00
57050;BME280;42935;50.966;16.992;2023-03-03T08:55:55;102085.45;;;-1.82;100.00
57050;BME280;42935;50.966;16.992;2023-03-03T08:59:17;102036.27;;;-2.08;100.00
57050;BME280;42935;50.966;16.992;2023-03-03T09:02:46;102100.80;;;-1.79;100.00
57050;BME280;42935;50.966;16.992;2023-03-03T09:06:11;102104.57;;;-1.77;100.00
57050;BME280;42935;50.966;16.992;2023-03-03T09:09:43;102089.78;;;-1.82;100.00
57050;BME280;42935;50.966;16.992;2023-03-03T09:13:16;102105.35;;;-1.71;100.00
57050;BME280;42935;50.966;16.992;2023-03-03T09:27:37;102117.48;;;-1.55;100.00
57050;BME280;42935;50.966;16.992;2023-03-03T09:30:48;102124.16;;;-1.69;100.00
57050;BME280;42935;50.966;16.992;2023-03-03T09:34:15;102124.33;;;-1.68;100.00
57050;BME280;42935;50.966;16.992;2023-03-03T09:37:40;102125.09;;;-1.65;100.00
57050;BME280;42935;50.966;16.992;2023-03-03T09:55:44;102140.98;;;-1.80;100.00
57050;BME280;42935;50.966;16.992;2023-03-03T10:06:10;102140.51;;;-1.87;100.00
57050;BME280;42935;50.966;16.992;2023-03-03T10:38:35;102142.74;;;-1.68;100.00
57050;BME280;42935;50.966;16.992;2023-03-03T10:42:09;102137.17;;;-1.56;100.00
57050;BME280;42935;50.966;16.992;2023-03-03T10:45:38;102121.50;;;-1.73;100.00
57050;BME280;42935;50.966;16.992;2023-03-03T10:52:52;102135.59;;;-1.25;100.00
57050;BME280;42935;50.966;16.992;2023-03-03T11:07:00;102114.12;;;-1.61;100.00
57050;BME280;42935;50.966;16.992;2023-03-03T11:18:14;102103.24;;;-1.45;100.00
57050;BME280;42935;50.966;16.992;2023-03-03T11:32:20;102113.55;;;-1.55;100.00
57050;BME280;42935;50.966;16.992;2023-03-03T11:39:24;102108.95;;;-1.32;100.00
57050;BME280;42935;50.966;16.992;2023-03-03T11:46:29;102077.55;;;-1.31;100.00
57050;BME280;42935;50.966;16.992;2023-03-03T11:50:28;102083.65;;;-1.18;100.00
57050;BME280;42935;50.966;16.992;2023-03-03T11:57:43;102079.96;;;-1.17;100.00
57050;BME280;42935;50.966;16.992;2023-03-03T12:11:52;102063.39;;;-0.96;100.00
57050;BME280;42935;50.966;16.992;2023-03-03T12:15:29;102049.50;;;-0.93;100.00
57050;BME280;42935;50.966;16.992;2023-03-03T12:19:08;102058.55;;;-0.85;100.00
57050;BME280;42935;50.966;16.992;2023-03-03T12:29:45;102065.86;;;-0.84;100.00
57050;BME280;42935;50.966;16.992;2023-03-03T12:33:22;102059.63;;;-0.80;100.00
57050;BME280;42935;50.966;16.992;2023-03-03T12:40:32;102058.15;;;-0.71;100.00
57050;BME280;42935;50.966;16.992;2023-03-03T12:51:10;102053.55;;;-0.76;100.00
57050;BME280;42935;50.966;16.992;2023-03-03T12:54:40;102042.94;;;-0.70;100.00
57050;BME280;42935;50.966;16.992;2023-03-03T12:58:14;102046.21;;;-0.50;100.00
57050;BME280;42935;50.966;16.992;2023-03-03T13:01:48;102055.40;;;-0.52;100.00
57050;BME280;42935;50.966;16.992;2023-03-03T13:16:03;102056.02;;;-0.72;100.00
57050;BME280;42935;50.966;16.992;2023-03-03T13:26:36;102042.61;;;-0.49;100.00
57050;BME280;42935;50.966;16.992;2023-03-03T13:30:36;102049.28;;;-0.46;100.00
57050;BME280;42935;50.966;16.992;2023-03-03T13:38:41;102033.95;;;-0.38;100.00
57050;BME280;42935;50.966;16.992;2023-03-03T13:42:12;102048.19;;;-0.48;100.00
57050;BME280;42935;50.966;16.992;2023-03-03T14:00:15;102028.05;;;-0.26;100.00
57050;BME280;42935;50.966;16.992;2023-03-03T14:07:27;102025.03;;;-0.30;100.00
57050;BME280;42935;50.966;16.992;2023-03-03T14:21:42;102012.06;;;-0.42;100.00
57050;BME280;42935;50.966;16.992;2023-03-03T14:25:09;102012.64;;;-0.42;100.00
57050;BME280;42935;50.966;16.992;2023-03-03T14:28:43;102012.59;;;-0.41;100.00
57050;BME280;42935;50.966;16.992;2023-03-03T14:32:33;102007.23;;;-0.44;100.00
57050;BME280;42935;50.966;16.992;2023-03-03T14:36:00;101999.35;;;-0.44;100.00
57050;BME280;42935;50.966;16.992;2023-03-03T14:43:04;101997.74;;;-0.52;100.00
57050;BME280;42935;50.966;16.992;2023-03-03T14:46:36;102011.46;;;-0.51;100.00
57050;BME280;42935;50.966;16.992;2023-03-03T14:49:57;102011.75;;;-0.58;100.00
57050;BME280;42935;50.966;16.992;2023-03-03T14:57:06;101995.66;;;-0.52;100.00
57050;BME280;42935;50.966;16.992;2023-03-03T15:00:34;101982.91;;;-0.56;100.00
57050;BME280;42935;50.966;16.992;2023-03-03T15:07:35;102001.69;;;-0.63;100.00
57050;BME280;42935;50.966;16.992;2023-03-03T15:14:45;101994.91;;;-0.66;100.00
57050;BME280;42935;50.966;16.992;2023-03-03T15:18:09;101976.03;;;-0.73;100.00
57050;BME280;42935;50.966;16.992;2023-03-03T15:21:36;101991.51;;;-0.69;100.00
57050;BME280;42935;50.966;16.992;2023-03-03T15:25:10;101977.04;;;-0.75;100.00
57050;BME280;42935;50.966;16.992;2023-03-03T15:36:00;101978.47;;;-0.95;100.00
57050;BME280;42935;50.966;16.992;2023-03-03T15:50:12;101964.83;;;-0.95;100.00
57050;BME280;42935;50.966;16.992;2023-03-03T15:57:20;101966.97;;;-1.20;100.00
57050;BME280;42935;50.966;16.992;2023-03-03T16:00:49;101962.72;;;-1.11;100.00
57050;BME280;42935;50.966;16.992;2023-03-03T16:04:18;101965.41;;;-1.04;100.00
57050;BME280;42935;50.966;16.992;2023-03-03T16:07:55;101966.82;;;-1.10;100.00
57050;BME280;42935;50.966;16.992;2023-03-03T16:11:27;101970.16;;;-1.11;100.00
57050;BME280;42935;50.966;16.992;2023-03-03T16:18:41;101978.73;;;-1.21;100.00
57050;BME280;42935;50.966;16.992;2023-03-03T16:25:50;101975.05;;;-1.23;100.00
57050;BME280;42935;50.966;16.992;2023-03-03T16:55:27;101960.18;;;-1.40;100.00
57050;BME280;42935;50.966;16.992;2023-03-03T17:09:54;101979.38;;;-1.36;100.00
57050;BME280;42935;50.966;16.992;2023-03-03T17:27:54;101988.29;;;-1.27;100.00
57050;BME280;42935;50.966;16.992;2023-03-03T17:46:16;101990.30;;;-1.40;100.00
57050;BME280;42935;50.966;16.992;2023-03-03T17:56:58;101970.73;;;-1.61;100.00
57050;BME280;42935;50.966;16.992;2023-03-03T18:11:07;101994.79;;;-1.52;100.00
57050;BME280;42935;50.966;16.992;2023-03-03T18:18:02;101998.75;;;-1.64;100.00
57050;BME280;42935;50.966;16.992;2023-03-03T18:32:18;101958.25;;;-1.95;100.00
57050;BME280;42935;50.966;16.992;2023-03-03T18:35:42;101990.03;;;-1.74;100.00
57050;BME280;42935;50.966;16.992;2023-03-03T18:39:12;101978.04;;;-1.72;100.00
57050;BME280;42935;50.966;16.992;2023-03-03T18:42:41;101974.52;;;-1.72;100.00
57050;BME280;42935;50.966;16.992;2023-03-03T18:50:04;101985.28;;;-1.61;100.00
57050;BME280;42935;50.966;16.992;2023-03-03T18:53:33;101986.16;;;-1.63;100.00
57050;BME280;42935;50.966;16.992;2023-03-03T19:00:31;101988.13;;;-1.75;100.00
57050;BME280;42935;50.966;16.992;2023-03-03T19:14:52;101964.45;;;-1.98;100.00
57050;BME280;42935;50.966;16.992;2023-03-03T19:18:26;102003.04;;;-1.69;100.00
57050;BME280;42935;50.966;16.992;2023-03-03T19:21:42;102006.66;;;-1.70;100.00
57050;BME280;42935;50.966;16.992;2023-03-03T19:25:19;102001.57;;;-1.79;100.00
57050;BME280;42935;50.966;16.992;2023-03-03T19:28:58;102009.06;;;-1.67;100.00
57050;BME280;42935;50.966;16.992;2023-03-03T19:36:13;101992.48;;;-1.71;100.00
57050;BME280;42935;50.966;16.992;2023-03-03T19:48:03;102006.11;;;-1.72;100.00
57050;BME280;42935;50.966;16.992;2023-03-03T19:51:34;102009.56;;;-1.79;100.00
57050;BME280;42935;50.966;16.992;2023-03-03T20:06:00;101993.63;;;-1.83;100.00
57050;BME280;42935;50.966;16.992;2023-03-03T20:13:28;101995.56;;;-1.74;100.00
57050;BME280;42935;50.966;16.992;2023-03-03T20:16:44;101994.55;;;-1.71;100.00
57050;BME280;42935;50.966;16.992;2023-03-03T20:24:00;101992.24;;;-1.82;100.00
57050;BME280;42935;50.966;16.992;2023-03-03T20:52:44;101977.04;;;-1.93;100.00
57050;BME280;42935;50.966;16.992;2023-03-03T20:59:55;101976.79;;;-1.87;100.00
57050;BME280;42935;50.966;16.992;2023-03-03T21:07:02;101967.27;;;-1.87;100.00
57050;BME280;42935;50.966;16.992;2023-03-03T21:10:24;101969.50;;;-1.79;100.00
57050;BME280;42935;50.966;16.992;2023-03-03T21:13:43;101967.41;;;-1.82;100.00
57050;BME280;42935;50.966;16.992;2023-03-03T21:20:38;101960.71;;;-1.74;100.00
57050;BME280;42935;50.966;16.992;2023-03-03T21:24:09;101962.83;;;-1.74;100.00
57050;BME280;42935;50.966;16.992;2023-03-03T21:27:41;101960.12;;;-1.72;100.00
57050;BME280;42935;50.966;16.992;2023-03-03T21:31:10;101953.29;;;-1.80;100.00
57050;BME280;42935;50.966;16.992;2023-03-03T21:34:40;101953.74;;;-1.82;100.00
57050;BME280;42935;50.966;16.992;2023-03-03T21:38:03;101939.79;;;-1.85;100.00
57050;BME280;42935;50.966;16.992;2023-03-03T21:45:13;101926.10;;;-1.81;100.00
57050;BME280;42935;50.966;16.992;2023-03-03T21:48:42;101931.45;;;-1.73;100.00
57050;BME280;42935;50.966;16.992;2023-03-03T21:52:11;101921.05;;;-1.83;100.00
57050;BME280;42935;50.966;16.992;2023-03-03T21:55:37;101916.73;;;-1.78;100.00
57050;BME280;42935;50.966;16.992;2023-03-03T21:58:59;101925.93;;;-1.76;100.00
57050;BME280;42935;50.966;16.992;2023-03-03T22:02:29;101918.77;;;-1.76;100.00
57050;BME280;42935;50.966;16.992;2023-03-03T22:05:52;101880.28;;;-2.01;100.00
57050;BME280;42935;50.966;16.992;2023-03-03T22:09:15;101919.58;;;-1.78;100.00
57050;BME280;42935;50.966;16.992;2023-03-03T22:12:39;101910.34;;;-1.92;100.00
57050;BME280;42935;50.966;16.992;2023-03-03T22:16:01;101905.80;;;-1.96;100.00
57050;BME280;42935;50.966;16.992;2023-03-03T22:19:29;101892.73;;;-1.96;100.00
57050;BME280;42935;50.966;16.992;2023-03-03T22:22:52;101887.09;;;-1.91;100.00
57050;BME280;42935;50.966;16.992;2023-03-03T22:26:11;101894.63;;;-1.87;100.00
57050;BME280;42935;50.966;16.992;2023-03-03T22:29:30;101874.10;;;-1.97;100.00
57050;BME280;42935;50.966;16.992;2023-03-03T22:32:53;101881.45;;;-1.91;100.00
57050;BME280;42935;50.966;16.992;2023-03-03T22:36:14;101879.90;;;-1.92;100.00
57050;BME280;42935;50.966;16.992;2023-03-03T22:39:33;101872.72;;;-1.95;100.00
57050;BME280;42935;50.966;16.992;2023-03-03T22:43:00;101879.23;;;-1.90;100.00
57050;BME280;42935;50.966;16.992;2023-03-03T22:46:27;101877.78;;;-1.88;100.00
57050;BME280;42935;50.966;16.992;2023-03-03T22:49:55;101868.66;;;-1.82;100.00
57050;BME280;42935;50.966;16.992;2023-03-03T22:53:18;101855.12;;;-1.85;100.00
57050;BME280;42935;50.966;16.992;2023-03-03T22:56:41;101848.27;;;-1.82;100.00
57050;BME280;42935;50.966;16.992;2023-03-03T23:00:10;101848.16;;;-1.81;100.00
57050;BME280;42935;50.966;16.992;2023-03-03T23:03:38;101846.71;;;-1.77;100.00
57050;BME280;42935;50.966;16.992;2023-03-03T23:07:00;101829.87;;;-1.76;100.00
57050;BME280;42935;50.966;16.992;2023-03-03T23:10:24;101832.60;;;-1.71;100.00
57050;BME280;42935;50.966;16.992;2023-03-03T23:13:47;101831.51;;;-1.72;100.00
57050;BME280;42935;50.966;16.992;2023-03-03T23:17:04;101826.65;;;-1.66;100.00
57050;BME280;42935;50.966;16.992;2023-03-03T23:20:35;101821.17;;;-1.63;100.00
57050;BME280;42935;50.966;16.992;2023-03-03T23:24:07;101806.85;;;-1.68;100.00
57050;BME280;42935;50.966;16.992;2023-03-03T23:27:27;101815.91;;;-1.61;100.00
57050;BME280;42935;50.966;16.992;2023-03-03T23:30:46;101813.32;;;-1.64;100.00
57050;BME280;42935;50.966;16.992;2023-03-03T23:34:06;101801.87;;;-1.65;100.00
57050;BME280;42935;50.966;16.992;2023-03-03T23:37:26;101799.03;;;-1.58;100.00
57050;BME280;42935;50.966;16.992;2023-03-03T23:40:49;101802.87;;;-1.56;100.00
57050;BME280;42935;50.966;16.992;2023-03-03T23:44:15;101802.33;;;-1.53;100.00
57050;BME280;42935;50.966;16.992;2023-03-03T23:47:35;101788.99;;;-1.53;100.00
57050;BME280;42935;50.966;16.992;2023-03-03T23:51:00;101775.16;;;-1.55;100.00
57050;BME280;42935;50.966;16.992;2023-03-03T23:54:29;101780.87;;;-1.49;100.00
57050;BME280;42935;50.966;16.992;2023-03-03T23:57:49;101771.88;;;-1.51;100.00
